createdAt,value
2023-03-12T00:08:05.980Z,7.20
2023-03-12T00:19:05.856Z,7.40
2023-03-12T00:30:05.830Z,6.10
2023-03-12T00:41:05.614Z,5.80
2023-03-12T00:52:05.499Z,6.90
2023-03-12T01:03:05.370Z,5.90
2023-03-12T01:14:05.251Z,5.60
2023-03-12T01:25:05.149Z,6.80
2023-03-12T01:36:05.164Z,5.70
2023-03-12T01:47:04.902Z,4.20
2023-03-12T01:58:04.771Z,5.80
2023-03-12T02:09:04.665Z,7.80
2023-03-12T02:20:04.528Z,5.40
2023-03-12T02:31:04.546Z,4.30
2023-03-12T02:42:04.289Z,6.10
2023-03-12T02:53:04.177Z,4.60
2023-03-12T03:04:04.107Z,4.50
2023-03-12T03:15:04.126Z,4.10
2023-03-12T03:26:03.877Z,4.80
2023-03-12T03:37:03.695Z,5.50
2023-03-12T03:48:03.570Z,4.30
2023-03-12T03:59:03.450Z,4.40
2023-03-12T04:10:03.324Z,4.30
2023-03-12T04:21:03.200Z,4.30
2023-03-12T04:32:03.128Z,3.30
2023-03-12T04:43:02.962Z,3.20
2023-03-12T04:54:02.851Z,3.70
2023-03-12T05:05:02.729Z,3.30
2023-03-12T05:16:02.650Z,3.30
2023-03-12T05:27:02.485Z,2.80
2023-03-12T05:38:02.410Z,4.00
2023-03-12T05:49:02.258Z,3.20
2023-03-12T06:00:02.146Z,2.50
2023-03-12T06:11:01.997Z,3.70
2023-03-12T06:22:01.874Z,2.00
2023-03-12T06:33:01.798Z,3.40
2023-03-12T06:44:01.661Z,2.70
2023-03-12T06:55:01.549Z,2.30
2023-03-12T07:06:01.405Z,3.40
2023-03-12T07:17:01.285Z,3.00
2023-03-12T07:28:01.159Z,3.40
2023-03-12T07:39:01.086Z,3.60
2023-03-12T07:50:01.003Z,3.60
2023-03-12T08:01:00.807Z,3.80
2023-03-12T08:12:00.769Z,3.10
2023-03-12T08:23:00.553Z,4.70
2023-03-12T08:34:00.465Z,3.40
2023-03-12T08:45:00.313Z,4.60
2023-03-12T08:56:00.206Z,4.40
2023-03-12T09:07:00.152Z,4.90
2023-03-12T09:17:59.977Z,4.40
2023-03-12T09:28:59.832Z,5.80
2023-03-12T09:39:59.740Z,3.40
2023-03-12T09:50:59.601Z,5.60
2023-03-12T10:01:59.528Z,6.50
2023-03-12T10:12:59.335Z,8.50
2023-03-12T10:23:59.224Z,7.50
2023-03-12T10:34:59.088Z,8.50
2023-03-12T10:45:59.008Z,7.40
2023-03-12T10:56:58.844Z,10.20
2023-03-12T11:07:58.732Z,8.70
2023-03-12T11:18:58.605Z,8.50
2023-03-12T11:29:58.481Z,5.50
2023-03-12T11:40:58.395Z,7.60
2023-03-12T11:51:58.270Z,6.10
2023-03-12T12:02:58.143Z,7.70
2023-03-12T12:13:58.005Z,8.70
2023-03-12T12:24:57.875Z,7.70
2023-03-12T12:35:57.787Z,8.40
2023-03-12T12:46:57.620Z,7.90
2023-03-12T12:57:57.560Z,7.70
2023-03-12T13:08:57.382Z,7.20
2023-03-12T13:20:01.468Z,5.10
2023-03-12T13:30:57.194Z,4.30
2023-03-12T13:41:57.052Z,3.20
2023-03-12T13:52:56.890Z,2.30
2023-03-12T14:03:56.788Z,2.70
2023-03-12T14:14:56.652Z,3.10
2023-03-12T14:25:56.518Z,2.10
2023-03-12T14:36:56.409Z,2.40
2023-03-12T14:47:56.295Z,2.40
2023-03-12T14:58:56.149Z,2.90
2023-03-12T15:09:56.060Z,2.60
2023-03-12T15:20:55.906Z,2.90
2023-03-12T15:31:55.863Z,2.40
2023-03-12T15:42:55.657Z,2.20
2023-03-12T15:53:55.541Z,2.90
2023-03-12T16:04:55.506Z,2.60
2023-03-12T16:15:55.294Z,2.80
2023-03-12T16:26:55.187Z,2.60
2023-03-12T16:37:55.710Z,2.00
2023-03-12T16:48:54.914Z,2.60
2023-03-12T16:59:54.806Z,2.80
2023-03-12T17:10:55.217Z,1.90
2023-03-12T17:21:55.079Z,2.50
2023-03-12T17:32:54.497Z,2.30
2023-03-12T17:43:54.295Z,3.60
2023-03-12T17:54:54.171Z,3.30
2023-03-12T18:05:54.095Z,2.40
2023-03-12T18:16:53.945Z,4.20
2023-03-12T18:27:55.778Z,2.60
2023-03-12T18:38:53.692Z,2.60
2023-03-12T18:49:53.582Z,1.90
2023-03-12T19:00:53.463Z,2.60
2023-03-12T19:11:53.324Z,3.10
2023-03-12T19:22:53.206Z,3.10
2023-03-12T19:33:53.082Z,2.90
2023-03-12T19:44:52.963Z,2.00
2023-03-12T19:55:53.044Z,2.40
2023-03-12T20:06:52.740Z,2.30
2023-03-12T20:17:52.593Z,2.80
2023-03-12T20:28:52.460Z,2.40
2023-03-12T20:39:52.400Z,2.40
2023-03-12T20:50:52.228Z,3.70
2023-03-12T21:01:52.110Z,2.00
2023-03-12T21:12:51.995Z,3.60
2023-03-12T21:23:51.972Z,5.40
2023-03-12T21:34:51.742Z,4.50
2023-03-12T21:45:51.690Z,4.70
2023-03-12T21:56:51.494Z,4.90
2023-03-12T22:07:51.365Z,5.00
2023-03-12T22:18:51.243Z,3.40
2023-03-12T22:29:51.129Z,3.90
2023-03-12T22:40:50.985Z,3.80
2023-03-12T22:51:50.904Z,3.40
2023-03-12T23:02:50.761Z,2.20
2023-03-12T23:13:50.619Z,2.90
2023-03-12T23:24:50.498Z,2.80
2023-03-12T23:35:50.446Z,2.50
2023-03-12T23:46:50.258Z,2.20
2023-03-12T23:57:50.138Z,2.40
